Time;durP1;ratioP1;P1;durP2;ratioP2;P2;SDS_P1;SDS_P2;PMS_P1;PMS_P2;Temp;Humidity;BMP_temperature;BMP_pressure;BME280_temperature;BME280_humidity;BME280_pressure;Samples;Min_cycle;Max_cycle;Signal;HPM_P1;HPM_P2
2023/12/11 00:02:13;;;;;;;35.55;5.22;;;;;;;8.84;100.00;99818.91;5036700;28;20038;-74
2023/12/11 00:04:39;;;;;;;35.60;5.70;;;;;;;8.84;100.00;99818.91;5057612;28;20068;-74
2023/12/11 00:07:04;;;;;;;33.92;5.55;;;;;;;8.87;100.00;99834.94;5032999;28;20034;-74
2023/12/11 00:09:30;;;;;;;36.40;5.57;;;;;;;8.89;100.00;99843.78;5037083;28;20037;-74
2023/12/11 00:11:56;;;;;;;36.45;5.65;;;;;;;8.89;100.00;99833.50;5035710;28;20041;-74
2023/12/11 00:14:22;;;;;;;30.23;5.40;;;;;;;8.92;100.00;99821.81;5036782;28;20029;-74
2023/12/11 00:16:47;;;;;;;30.65;4.63;;;;;;;8.93;100.00;99811.56;5037348;28;20026;-74
2023/12/11 00:19:13;;;;;;;29.73;5.00;;;;;;;8.93;100.00;99786.66;5036802;28;20033;-74
2023/12/11 00:21:38;;;;;;;35.47;6.20;;;;;;;8.97;100.00;99792.41;5035539;28;20037;-74
2023/12/11 00:24:05;;;;;;;26.45;5.05;;;;;;;8.98;100.00;99789.34;5036632;28;20052;-74
2023/12/11 00:26:30;;;;;;;32.22;5.65;;;;;;;9.01;100.00;99816.44;5035698;28;20028;-74
2023/12/11 00:28:56;;;;;;;38.22;5.82;;;;;;;9.05;100.00;99811.09;5018571;28;20037;-74
2023/12/11 00:31:21;;;;;;;32.50;5.15;;;;;;;9.06;100.00;99785.06;5035399;28;20387;-74
2023/12/11 00:33:46;;;;;;;35.10;4.90;;;;;;;9.07;100.00;99767.31;5035571;28;20037;-74
2023/12/11 00:36:12;;;;;;;28.98;5.43;;;;;;;9.10;100.00;99775.84;5036564;28;20138;-74
2023/12/11 00:38:37;;;;;;;35.75;6.00;;;;;;;9.12;100.00;99756.97;5035423;28;20470;-74
2023/12/11 00:41:03;;;;;;;28.63;5.95;;;;;;;9.09;100.00;99748.47;5036409;28;20033;-74
2023/12/11 00:43:29;;;;;;;27.58;4.63;;;;;;;9.09;100.00;99749.28;5036237;28;20025;-74
2023/12/11 00:45:55;;;;;;;27.15;4.90;;;;;;;9.10;100.00;99744.53;5034884;28;20033;-74
2023/12/11 00:48:20;;;;;;;26.15;4.50;;;;;;;9.09;100.00;99743.72;5036456;28;20032;-74
2023/12/11 00:50:46;;;;;;;33.70;5.57;;;;;;;9.10;100.00;99750.09;5043587;28;20021;-74
2023/12/11 00:53:11;;;;;;;33.92;4.90;;;;;;;9.10;100.00;99750.91;5036421;28;20036;-74
2023/12/11 00:55:37;;;;;;;29.05;5.65;;;;;;;9.12;100.00;99753.38;5036353;28;20087;-74
2023/12/11 00:58:03;;;;;;;25.77;4.45;;;;;;;9.12;100.00;99754.19;5036147;28;20382;-74
2023/12/11 01:00:28;;;;;;;37.13;4.95;;;;;;;9.14;100.00;99749.19;5036274;28;20026;-74
2023/12/11 01:02:53;;;;;;;32.05;5.07;;;;;;;9.13;100.00;99744.75;5036282;28;20033;-74
2023/12/11 01:05:19;;;;;;;26.15;4.75;;;;;;;9.14;100.00;99751.97;5052872;28;20037;-74
2023/12/11 01:07:44;;;;;;;33.45;5.40;;;;;;;9.14;100.00;99760.28;5032667;28;20089;-74
2023/12/11 01:10:10;;;;;;;41.92;5.72;;;;;;;9.17;100.00;99761.63;5031669;28;20374;-74
2023/12/11 01:12:36;;;;;;;29.70;5.32;;;;;;;9.17;100.00;99772.69;5036271;28;20497;-74
2023/12/11 01:15:02;;;;;;;39.78;5.80;;;;;;;9.18;100.00;99791.78;5039114;28;20029;-74
2023/12/11 01:17:27;;;;;;;27.50;4.47;;;;;;;9.20;100.00;99783.16;5038843;28;20053;-74
2023/12/11 01:19:53;;;;;;;39.97;6.15;;;;;;;9.23;100.00;99776.22;5040127;28;20328;-74
2023/12/11 01:22:18;;;;;;;32.45;4.63;;;;;;;9.22;100.00;99780.94;5039037;28;20381;-74
2023/12/11 01:24:44;;;;;;;26.42;4.82;;;;;;;9.23;100.00;99790.88;5040072;28;20033;-74
2023/12/11 01:27:09;;;;;;;32.42;4.88;;;;;;;9.26;100.00;99781.13;5040081;28;20096;-74
2023/12/11 01:29:35;;;;;;;31.85;5.78;;;;;;;9.26;100.00;99778.38;5038508;28;20033;-74
2023/12/11 01:32:00;;;;;;;31.23;5.57;;;;;;;9.28;100.00;99756.72;5040167;28;20029;-74
2023/12/11 01:34:26;;;;;;;32.38;5.20;;;;;;;9.27;100.00;99753.09;5039920;28;20547;-74
2023/12/11 01:36:51;;;;;;;39.15;6.35;;;;;;;9.31;100.00;99747.81;5040010;28;20029;-74
2023/12/11 01:39:16;;;;;;;40.03;5.70;;;;;;;9.29;100.00;99747.28;5005887;28;20635;-74
2023/12/11 01:41:42;;;;;;;39.08;5.57;;;;;;;9.33;100.00;99753.84;5038665;28;20029;-74
2023/12/11 01:44:07;;;;;;;34.80;4.63;;;;;;;9.32;100.00;99741.94;5038308;28;20036;-74
2023/12/11 01:46:33;;;;;;;36.67;4.78;;;;;;;9.35;100.00;99746.06;5039457;28;20041;-74
2023/12/11 01:48:58;;;;;;;34.63;5.13;;;;;;;9.35;100.00;99749.66;5038509;28;20115;-74
2023/12/11 01:51:25;;;;;;;38.75;5.53;;;;;;;9.36;100.00;99745.75;5046847;28;20029;-74
2023/12/11 01:53:50;;;;;;;38.28;5.32;;;;;;;9.39;100.00;99719.41;5003494;28;20018;-74
2023/12/11 01:56:20;;;;;;;38.70;5.15;;;;;;;9.43;100.00;99725.13;5038272;28;20037;-74
2023/12/11 01:58:45;;;;;;;40.88;6.22;;;;;;;9.41;100.00;99711.56;5037970;28;20029;-74
2023/12/11 02:01:11;;;;;;;29.02;4.72;;;;;;;9.42;100.00;99706.84;5038162;28;20034;-74
2023/12/11 02:03:36;;;;;;;33.13;4.80;;;;;;;9.45;100.00;99696.00;5021558;28;20053;-74
2023/12/11 02:06:02;;;;;;;29.88;4.78;;;;;;;9.42;100.00;99691.06;5038408;28;20030;-74
2023/12/11 02:08:27;;;;;;;34.70;5.18;;;;;;;9.45;100.00;99679.38;5039289;28;20120;-74
2023/12/11 02:10:53;;;;;;;32.28;4.85;;;;;;;9.48;100.00;99698.16;5050314;28;20029;-74
2023/12/11 02:13:20;;;;;;;33.15;4.97;;;;;;;9.47;100.00;99713.16;5037708;28;20021;-74
2023/12/11 02:15:46;;;;;;;36.42;5.15;;;;;;;9.45;100.00;99723.72;5005038;28;20043;-74
2023/12/11 02:18:12;;;;;;;30.85;4.95;;;;;;;9.47;100.00;99720.63;5038830;28;20044;-74
2023/12/11 02:20:38;;;;;;;33.58;5.45;;;;;;;9.48;100.00;99722.28;5039073;28;20045;-74
2023/12/11 02:23:04;;;;;;;28.52;5.20;;;;;;;9.49;100.00;99716.41;5037790;28;20680;-74
2023/12/11 02:25:30;;;;;;;40.58;5.57;;;;;;;9.49;100.00;99723.91;5039004;28;20435;-74
2023/12/11 02:27:57;;;;;;;26.40;4.70;;;;;;;9.50;100.00;99729.16;5020893;28;20037;-74
2023/12/11 02:30:22;;;;;;;44.08;6.55;;;;;;;9.49;100.00;99724.72;5038956;28;20535;-74
2023/12/11 02:32:51;;;;;;;37.85;5.68;;;;;;;9.50;100.00;99711.69;5038876;28;20022;-74
2023/12/11 02:35:16;;;;;;;37.58;4.32;;;;;;;9.48;100.00;99728.63;5038974;28;20048;-74
2023/12/11 02:37:42;;;;;;;32.50;4.38;;;;;;;9.51;100.00;99733.56;5038654;28;20029;-74
2023/12/11 02:40:08;;;;;;;32.42;4.53;;;;;;;9.51;100.00;99729.97;5038793;28;20032;-74
2023/12/11 02:42:33;;;;;;;33.75;5.35;;;;;;;9.51;100.00;99738.28;5020667;28;20029;-74
2023/12/11 02:44:59;;;;;;;27.08;4.45;;;;;;;9.50;100.00;99747.72;5037239;28;20040;-74
2023/12/11 02:47:24;;;;;;;40.50;5.95;;;;;;;9.50;100.00;99743.03;5038684;28;20049;-74
2023/12/11 02:49:49;;;;;;;31.38;4.95;;;;;;;9.50;100.00;99742.16;5039235;28;20059;-74
2023/12/11 02:52:15;;;;;;;26.27;4.82;;;;;;;9.51;100.00;99750.19;5043714;28;20033;-74
2023/12/11 02:54:40;;;;;;;32.55;5.22;;;;;;;9.50;100.00;99742.16;5038509;28;20021;-74
2023/12/11 02:57:06;;;;;;;35.50;4.88;;;;;;;9.50;100.00;99736.63;5021174;28;20033;-74
2023/12/11 02:59:31;;;;;;;25.63;4.50;;;;;;;9.50;100.00;99736.63;5038156;28;20083;-74
2023/12/11 03:01:57;;;;;;;21.98;4.45;;;;;;;9.49;100.00;99735.81;5020669;28;20060;-74
2023/12/11 03:04:22;;;;;;;24.80;3.65;;;;;;;9.49;100.00;99733.03;5038207;28;20022;-74
2023/12/11 03:06:48;;;;;;;28.83;3.92;;;;;;;9.49;100.00;99723.91;5038261;28;20103;-74
2023/12/11 03:09:13;;;;;;;26.80;4.50;;;;;;;9.49;100.00;99721.13;5031895;28;20097;-74
2023/12/11 03:11:38;;;;;;;26.25;4.63;;;;;;;9.48;100.00;99711.19;5038127;28;20029;-74
2023/12/11 03:14:04;;;;;;;24.92;4.85;;;;;;;9.45;100.00;99712.63;5037973;28;20075;-74
2023/12/11 03:16:29;;;;;;;21.27;4.25;;;;;;;9.45;100.00;99707.06;5038046;28;20576;-74
2023/12/11 03:18:55;;;;;;;38.55;5.30;;;;;;;9.45;100.00;99706.25;5038100;28;20053;-74
2023/12/11 03:21:20;;;;;;;25.48;4.43;;;;;;;9.44;100.00;99705.41;5038000;28;20529;-74
2023/12/11 03:23:46;;;;;;;29.67;4.68;;;;;;;9.44;100.00;99710.97;5037919;28;20079;-74
2023/12/11 03:26:11;;;;;;;37.60;4.45;;;;;;;9.44;100.00;99705.41;5037948;28;20406;-74
2023/12/11 03:28:37;;;;;;;24.48;4.43;;;;;;;9.44;100.00;99699.06;5036254;28;20231;-74
2023/12/11 03:31:02;;;;;;;23.67;4.55;;;;;;;9.45;100.00;99704.31;5037756;28;20033;-74
2023/12/11 03:33:28;;;;;;;29.08;4.47;;;;;;;9.45;100.00;99695.19;5020009;28;20093;-74
2023/12/11 03:35:53;;;;;;;29.20;4.72;;;;;;;9.45;100.00;99697.94;5036957;28;20083;-74
2023/12/11 03:38:18;;;;;;;30.15;4.38;;;;;;;9.45;100.00;99696.00;5037653;28;20041;-74
2023/12/11 03:40:44;;;;;;;27.75;5.72;;;;;;;9.45;100.00;99701.53;5037714;28;20040;-74
2023/12/11 03:43:10;;;;;;;34.70;4.65;;;;;;;9.45;100.00;99704.31;5037084;28;20026;-74
2023/12/11 03:45:36;;;;;;;23.65;4.93;;;;;;;9.46;100.00;99696.81;5036056;28;20112;-74
2023/12/11 03:48:02;;;;;;;32.03;5.10;;;;;;;9.47;100.00;99704.84;5037426;28;20031;-74
2023/12/11 03:50:27;;;;;;;24.10;4.72;;;;;;;9.47;100.00;99707.59;5044271;28;20040;-74
2023/12/11 03:52:53;;;;;;;38.72;4.88;;;;;;;9.48;100.00;99717.53;5037418;28;20026;-74
2023/12/11 03:55:18;;;;;;;34.22;4.97;;;;;;;9.48;100.00;99713.97;5037275;28;20033;-74
2023/12/11 03:57:44;;;;;;;24.67;4.18;;;;;;;9.49;100.00;99716.41;5037121;28;20037;-74
2023/12/11 04:00:10;;;;;;;31.63;5.78;;;;;;;9.51;100.00;99725.25;5036264;28;20382;-74
2023/12/11 04:02:36;;;;;;;29.70;5.00;;;;;;;9.49;100.00;99730.28;5035686;28;20026;-74
2023/12/11 04:05:01;;;;;;;25.67;4.20;;;;;;;9.49;100.00;99724.72;5036878;28;20079;-75
2023/12/11 04:07:28;;;;;;;26.38;4.05;;;;;;;9.49;100.00;99710.88;5037041;28;20026;-74
2023/12/11 04:09:53;;;;;;;27.35;4.35;;;;;;;9.50;100.00;99718.06;5041901;28;20055;-74
2023/12/11 04:12:19;;;;;;;29.70;4.63;;;;;;;9.51;100.00;99722.47;5036921;28;20055;-74
2023/12/11 04:14:44;;;;;;;29.08;4.82;;;;;;;9.51;100.00;99739.09;5036704;28;20030;-74
2023/12/11 04:17:09;;;;;;;30.90;5.03;;;;;;;9.51;100.00;99743.84;5036666;28;20383;-74
2023/12/11 04:19:35;;;;;;;33.15;5.90;;;;;;;9.51;100.00;99744.66;5036812;28;20037;-74
2023/12/11 04:22:00;;;;;;;29.10;5.15;;;;;;;9.52;100.00;99743.50;5036752;28;20422;-74
2023/12/11 04:24:26;;;;;;;32.63;5.10;;;;;;;9.51;100.00;99722.47;5035565;28;20017;-74
2023/12/11 04:26:52;;;;;;;26.95;4.40;;;;;;;9.52;100.00;99718.56;5036783;28;20417;-74
2023/12/11 04:29:18;;;;;;;30.90;4.72;;;;;;;9.51;100.00;99716.13;5036403;28;20033;-74
2023/12/11 04:31:43;;;;;;;20.08;4.43;;;;;;;9.52;100.00;99710.25;5035459;28;20033;-74
2023/12/11 04:34:09;;;;;;;24.30;4.93;;;;;;;9.53;100.00;99720.22;5036784;28;20028;-74
2023/12/11 04:36:34;;;;;;;28.75;4.28;;;;;;;9.52;100.00;99720.53;5036639;28;20034;-74
2023/12/11 04:39:00;;;;;;;25.13;4.20;;;;;;;9.52;100.00;99723.28;5036618;28;20104;-74
2023/12/11 04:41:25;;;;;;;29.83;5.32;;;;;;;9.53;100.00;99723.00;5036543;28;20034;-74
2023/12/11 04:43:51;;;;;;;32.20;4.95;;;;;;;9.53;100.00;99717.47;5036119;28;20033;-74
2023/12/11 04:46:16;;;;;;;22.33;4.65;;;;;;;9.54;100.00;99732.13;5034992;28;20052;-74
2023/12/11 04:48:42;;;;;;;29.10;5.22;;;;;;;9.53;100.00;99747.94;5036314;28;20510;-74
2023/12/11 04:51:08;;;;;;;26.13;5.32;;;;;;;9.52;100.00;99751.81;5022998;28;20113;-74
2023/12/11 04:53:33;;;;;;;40.47;5.35;;;;;;;9.53;100.00;99772.91;5010813;28;20030;-74
2023/12/11 04:55:58;;;;;;;29.02;5.05;;;;;;;9.53;100.00;99761.00;5036310;28;20040;-74
2023/12/11 04:58:24;;;;;;;31.92;4.85;;;;;;;9.52;100.00;99746.28;5036054;28;20029;-74
2023/12/11 05:00:49;;;;;;;30.05;5.55;;;;;;;9.53;100.00;99745.19;5036331;28;20034;-74
2023/12/11 05:03:15;;;;;;;29.83;4.45;;;;;;;9.53;100.00;99750.72;5034980;28;20045;-74
2023/12/11 05:05:40;;;;;;;21.88;4.45;;;;;;;9.52;100.00;99740.75;5036163;28;20030;-74
2023/12/11 05:08:06;;;;;;;20.17;4.80;;;;;;;9.53;100.00;99759.03;5036305;28;20110;-74
2023/12/11 05:10:32;;;;;;;37.13;4.88;;;;;;;9.54;100.00;99776.47;5028451;28;20041;-74
2023/12/11 05:12:58;;;;;;;28.02;4.57;;;;;;;9.54;100.00;99782.84;5035989;28;20109;-74
2023/12/11 05:15:23;;;;;;;22.60;3.78;;;;;;;9.53;100.00;99786.75;5036288;28;20035;-74
2023/12/11 05:17:49;;;;;;;23.65;3.83;;;;;;;9.55;100.00;99791.97;5035821;28;20057;-74
2023/12/11 05:20:16;;;;;;;35.75;5.03;;;;;;;9.55;100.00;99780.88;5036080;28;20041;-74
2023/12/11 05:22:41;;;;;;;32.17;5.03;;;;;;;9.53;100.00;99778.44;5036151;28;20047;-74
2023/12/11 05:25:07;;;;;;;25.50;4.25;;;;;;;9.55;100.00;99778.13;5036135;28;20081;-74
2023/12/11 05:27:33;;;;;;;24.27;3.95;;;;;;;9.53;100.00;99792.31;5035687;28;20402;-74
2023/12/11 05:29:58;;;;;;;30.90;4.10;;;;;;;9.52;100.00;99787.88;5068006;28;20025;-74
2023/12/11 05:32:24;;;;;;;34.05;5.65;;;;;;;9.52;100.00;99781.50;5036004;28;20038;-74
2023/12/11 05:34:49;;;;;;;26.95;4.53;;;;;;;9.51;100.00;99783.47;5036011;28;20029;-74
2023/12/11 05:37:15;;;;;;;28.48;5.00;;;;;;;9.50;100.00;99792.06;5036003;28;20030;-74
2023/12/11 05:39:40;;;;;;;27.83;4.70;;;;;;;9.48;100.00;99789.63;5035949;28;20033;-74
2023/12/11 05:42:06;;;;;;;21.10;3.60;;;;;;;9.47;100.00;99785.22;5035898;28;20088;-74
2023/12/11 05:44:31;;;;;;;30.02;4.18;;;;;;;9.45;100.00;99787.47;5035398;28;20025;-74
2023/12/11 05:46:56;;;;;;;22.55;4.30;;;;;;;9.44;100.00;99791.34;5035902;28;20037;-74
2023/12/11 05:49:22;;;;;;;26.45;4.35;;;;;;;9.38;100.00;99790.59;5035905;28;20029;-74
2023/12/11 05:51:47;;;;;;;26.48;4.30;;;;;;;9.36;100.00;99789.25;5041917;28;20099;-74
2023/12/11 05:54:13;;;;;;;29.05;4.38;;;;;;;9.36;100.00;99797.56;5035767;28;20026;-74
2023/12/11 05:56:38;;;;;;;30.83;4.68;;;;;;;9.35;100.00;99807.03;5034652;28;20064;-74
2023/12/11 05:59:04;;;;;;;19.83;4.00;;;;;;;9.32;100.00;99807.63;5036501;28;20033;-74
2023/12/11 06:01:30;;;;;;;28.77;4.25;;;;;;;9.30;100.00;99809.88;5039531;28;20034;-74
2023/12/11 06:03:55;;;;;;;25.15;4.32;;;;;;;9.26;100.00;99815.19;5039259;28;20087;-74
2023/12/11 06:06:21;;;;;;;28.35;4.90;;;;;;;9.25;100.00;99807.19;5039521;28;20025;-74
2023/12/11 06:08:46;;;;;;;31.10;4.65;;;;;;;9.24;100.00;99811.09;5038157;28;20033;-74
2023/12/11 06:11:12;;;;;;;28.50;4.15;;;;;;;9.19;100.00;99817.53;5043165;28;20033;-74
2023/12/11 06:13:37;;;;;;;31.33;4.85;;;;;;;9.16;100.00;99807.91;5038994;28;20109;-74
2023/12/11 06:16:03;;;;;;;23.58;4.32;;;;;;;9.14;100.00;99807.38;5039342;28;20033;-74
2023/12/11 06:18:29;;;;;;;25.98;4.47;;;;;;;9.13;100.00;99810.41;5037767;28;20045;-74
2023/12/11 06:20:58;;;;;;;26.65;4.47;;;;;;;9.08;100.00;99813.28;5039164;28;20083;-74
2023/12/11 06:23:23;;;;;;;26.70;4.55;;;;;;;9.10;100.00;99817.38;5037964;28;20025;-74
2023/12/11 06:25:48;;;;;;;31.23;4.90;;;;;;;9.08;100.00;99824.34;5039187;28;20087;-74
2023/12/11 06:28:14;;;;;;;31.50;4.53;;;;;;;9.04;100.00;99813.06;5070627;28;20021;-74
2023/12/11 06:30:39;;;;;;;29.30;5.00;;;;;;;9.03;100.00;99822.50;5039096;28;20033;-74
2023/12/11 06:33:05;;;;;;;27.15;4.90;;;;;;;9.03;100.00;99827.22;5038906;28;20026;-74
2023/12/11 06:35:30;;;;;;;18.80;3.80;;;;;;;8.98;100.00;99833.66;5037922;28;20060;-74
2023/12/11 06:37:56;;;;;;;21.48;4.35;;;;;;;8.99;100.00;99834.47;5038898;28;20034;-74
2023/12/11 06:40:21;;;;;;;36.97;5.13;;;;;;;8.96;100.00;99833.13;5037586;28;20048;-74
2023/12/11 06:42:47;;;;;;;27.70;4.20;;;;;;;8.94;100.00;99832.59;5037210;28;20044;-74
2023/12/11 06:45:12;;;;;;;24.60;4.60;;;;;;;8.93;100.00;99830.97;5038640;28;20053;-74
2023/12/11 06:47:38;;;;;;;22.42;4.03;;;;;;;8.92;100.00;99829.31;5038618;28;20485;-74
2023/12/11 06:50:04;;;;;;;26.20;3.92;;;;;;;8.92;100.00;99837.63;5042299;28;20078;-74
2023/12/11 06:52:29;;;;;;;25.02;4.45;;;;;;;8.88;100.00;99831.03;5041544;28;20061;-74
2023/12/11 06:54:55;;;;;;;28.85;4.43;;;;;;;8.88;100.00;99837.38;5038562;28;20056;-74
2023/12/11 06:57:20;;;;;;;31.42;5.43;;;;;;;8.85;100.00;99837.97;5036968;28;20036;-74
2023/12/11 06:59:46;;;;;;;25.90;4.00;;;;;;;8.86;100.00;99834.09;5038523;28;20117;-74
2023/12/11 07:02:11;;;;;;;28.85;4.40;;;;;;;8.82;100.00;99832.22;5038401;28;20030;-74
2023/12/11 07:04:40;;;;;;;31.83;4.70;;;;;;;8.82;100.00;99835.00;5038548;28;20223;-74
2023/12/11 07:07:06;;;;;;;20.08;3.95;;;;;;;8.82;100.00;99849.66;5020905;28;20398;-75
2023/12/11 07:09:31;;;;;;;19.63;4.07;;;;;;;8.77;100.00;99857.22;5038242;28;20031;-74
2023/12/11 07:11:57;;;;;;;34.63;5.00;;;;;;;8.78;100.00;99864.41;5020270;28;20045;-74
2023/12/11 07:14:23;;;;;;;29.00;4.10;;;;;;;8.78;100.00;99853.34;5028117;28;20548;-74
2023/12/11 07:16:48;;;;;;;17.77;3.40;;;;;;;8.78;100.00;99856.09;5037912;28;20029;-74
2023/12/11 07:19:14;;;;;;;30.52;4.28;;;;;;;8.76;100.00;99850.03;5038049;28;20048;-74
2023/12/11 07:21:42;;;;;;;23.38;4.07;;;;;;;8.77;100.00;99840.59;5020250;28;20032;-74
2023/12/11 07:24:08;;;;;;;23.42;4.15;;;;;;;8.74;100.00;99836.47;5038055;28;20421;-74
2023/12/11 07:26:33;;;;;;;23.20;3.95;;;;;;;8.68;100.00;99841.25;5036696;28;20036;-74
2023/12/11 07:29:00;;;;;;;24.25;3.60;;;;;;;8.72;100.00;99856.19;5037587;28;20026;-73
2023/12/11 07:31:25;;;;;;;23.30;4.72;;;;;;;8.69;100.00;99850.38;5037808;28;20508;-74
2023/12/11 07:33:50;;;;;;;24.05;3.83;;;;;;;8.68;100.00;99862.59;5037848;28;20029;-74
2023/12/11 07:36:17;;;;;;;28.98;4.35;;;;;;;8.63;100.00;99863.47;5036959;28;20485;-74
2023/12/11 07:38:42;;;;;;;27.70;4.75;;;;;;;8.61;100.00;99860.19;5036647;28;20033;-74
2023/12/11 07:41:08;;;;;;;29.50;4.90;;;;;;;8.62;100.00;99853.53;5037608;28;20040;-74
2023/12/11 07:43:33;;;;;;;22.95;4.47;;;;;;;8.60;100.00;99853.00;5037356;28;20696;-74
2023/12/11 07:45:59;;;;;;;26.60;4.38;;;;;;;8.59;100.00;99859.66;5037535;28;20025;-74
2023/12/11 07:48:26;;;;;;;21.30;3.97;;;;;;;8.57;100.00;99859.13;5037627;28;20029;-74
2023/12/11 07:50:51;;;;;;;25.35;3.70;;;;;;;8.53;100.00;99855.31;5043736;28;20040;-74
2023/12/11 07:53:17;;;;;;;24.77;4.47;;;;;;;8.54;100.00;99865.25;5037487;28;20033;-74
2023/12/11 07:55:42;;;;;;;24.08;4.50;;;;;;;8.53;100.00;99869.16;5036146;28;20496;-74
2023/12/11 07:58:08;;;;;;;21.27;4.10;;;;;;;8.49;100.00;99873.63;5037161;28;20456;-74
2023/12/11 08:00:33;;;;;;;24.85;4.28;;;;;;;8.46;100.00;99863.97;5037264;28;20033;-74
2023/12/11 08:02:59;;;;;;;25.27;4.47;;;;;;;8.45;100.00;99867.03;5036041;28;20478;-74
2023/12/11 08:05:24;;;;;;;21.23;3.67;;;;;;;8.43;100.00;99869.28;5037140;28;20034;-74
2023/12/11 08:07:50;;;;;;;19.10;3.95;;;;;;;8.42;100.00;99868.47;5036197;28;20035;-74
2023/12/11 08:10:16;;;;;;;25.90;4.20;;;;;;;8.43;100.00;99872.03;5038954;28;20056;-74
2023/12/11 08:12:41;;;;;;;18.85;4.32;;;;;;;8.42;100.00;99878.72;5047299;28;20829;-74
2023/12/11 08:15:07;;;;;;;18.67;4.03;;;;;;;8.37;100.00;99875.97;5035832;28;20026;-74
2023/12/11 08:17:33;;;;;;;20.83;3.75;;;;;;;8.39;100.00;99869.06;5036875;28;20047;-74
2023/12/11 08:19:58;;;;;;;27.05;4.75;;;;;;;8.37;100.00;99870.44;5027391;28;20037;-74
2023/12/11 08:22:24;;;;;;;23.15;4.35;;;;;;;8.38;100.00;99875.66;5027983;28;20025;-74
2023/12/11 08:24:49;;;;;;;19.48;3.80;;;;;;;8.37;100.00;99874.00;5035047;28;20037;-74
2023/12/11 08:27:15;;;;;;;27.55;4.28;;;;;;;8.36;100.00;99885.38;5036496;28;20108;-74
2023/12/11 08:29:40;;;;;;;16.52;3.60;;;;;;;8.40;100.00;99886.47;5036627;28;20029;-74
2023/12/11 08:32:06;;;;;;;24.83;4.45;;;;;;;8.39;100.00;99885.66;5036703;28;20095;-74
2023/12/11 08:34:31;;;;;;;25.55;4.15;;;;;;;8.41;100.00;99877.03;5036743;28;20064;-74
2023/12/11 08:36:57;;;;;;;25.08;4.07;;;;;;;8.44;100.00;99884.75;5032871;28;20083;-74
2023/12/11 08:39:22;;;;;;;23.08;3.83;;;;;;;8.46;100.00;99886.09;5030884;28;20056;-74
2023/12/11 08:41:49;;;;;;;19.17;3.95;;;;;;;8.49;100.00;99893.00;5035240;28;20041;-74
2023/12/11 08:44:15;;;;;;;21.92;4.72;;;;;;;8.54;100.00;99900.44;5035722;28;20457;-74
2023/12/11 08:46:40;;;;;;;28.10;5.10;;;;;;;8.59;100.00;99905.91;5036633;28;20029;-74
2023/12/11 08:49:07;;;;;;;23.58;4.65;;;;;;;8.62;100.00;99908.91;5035370;28;20390;-74
2023/12/11 08:51:32;;;;;;;20.48;4.28;;;;;;;8.67;100.00;99908.84;5043821;28;20033;-74
2023/12/11 08:53:58;;;;;;;23.95;4.47;;;;;;;8.72;100.00;99910.72;5035133;28;20107;-74
2023/12/11 08:56:23;;;;;;;16.52;3.75;;;;;;;8.76;100.00;99900.69;5036442;28;20585;-74
2023/12/11 08:58:50;;;;;;;17.35;3.80;;;;;;;8.81;100.00;99903.41;5034789;28;20037;-74
2023/12/11 09:01:15;;;;;;;18.23;4.53;;;;;;;8.87;100.00;99904.97;5036386;28;20055;-74
2023/12/11 09:03:42;;;;;;;16.27;4.28;;;;;;;8.93;100.00;99914.03;5036141;28;20425;-74
2023/12/11 09:06:08;;;;;;;20.10;4.15;;;;;;;8.93;100.00;99936.19;5068359;28;20729;-74
2023/12/11 09:08:33;;;;;;;18.17;4.45;;;;;;;9.03;100.00;99940.78;5036234;28;20025;-74
2023/12/11 09:10:59;;;;;;;26.30;4.63;;;;;;;9.06;100.00;99932.69;5035042;28;20489;-74
2023/12/11 09:13:26;;;;;;;22.08;4.97;;;;;;;9.14;100.00;99937.56;5034062;28;20529;-74
2023/12/11 09:15:54;;;;;;;17.80;3.90;;;;;;;9.20;100.00;99948.59;5036298;28;20034;-74
2023/12/11 09:18:23;;;;;;;22.65;4.47;;;;;;;9.27;100.00;99954.56;5032501;28;20371;-74
2023/12/11 09:20:49;;;;;;;19.63;4.10;;;;;;;9.30;100.00;99948.41;5026975;28;20584;-74
2023/12/11 09:23:14;;;;;;;20.73;4.78;;;;;;;9.40;100.00;99951.06;5024992;28;20022;-74
2023/12/11 09:25:40;;;;;;;22.15;4.60;;;;;;;9.46;100.00;99944.31;5025354;28;20030;-74
2023/12/11 09:28:06;;;;;;;24.98;5.22;;;;;;;9.52;100.00;99945.88;5025342;28;20036;-74
2023/12/11 09:30:31;;;;;;;28.88;5.57;;;;;;;9.56;100.00;99946.94;5021669;28;20030;-74
2023/12/11 09:32:56;;;;;;;19.17;4.18;;;;;;;9.64;100.00;99945.44;5026169;28;20037;-74
2023/12/11 09:35:22;;;;;;;21.83;4.88;;;;;;;9.71;100.00;99950.59;5027521;28;20025;-74
2023/12/11 09:37:47;;;;;;;20.08;4.15;;;;;;;9.76;100.00;99959.63;5028528;28;20037;-74
2023/12/11 09:40:13;;;;;;;23.50;4.60;;;;;;;9.80;100.00;99962.63;5026372;28;20036;-74
2023/12/11 09:42:43;;;;;;;22.90;4.97;;;;;;;9.88;100.00;99958.34;5020738;28;20030;-74
2023/12/11 09:45:27;;;;;;;26.02;4.68;;;;;;;9.93;100.00;99956.31;5014771;28;20026;-74
2023/12/11 09:47:53;;;;;;;17.75;4.35;;;;;;;9.97;100.00;99957.38;5022449;28;20037;-74
2023/12/11 09:50:19;;;;;;;27.55;5.50;;;;;;;10.01;100.00;99938.97;5030717;28;20033;-74
2023/12/11 09:52:44;;;;;;;25.35;4.47;;;;;;;10.06;100.00;99949.16;5030172;28;20148;-74
2023/12/11 09:55:10;;;;;;;26.20;4.90;;;;;;;10.10;100.00;99950.19;5029717;28;20029;-74
2023/12/11 09:57:40;;;;;;;21.30;4.25;;;;;;;10.15;100.00;99955.66;5027296;28;20036;-74
2023/12/11 10:00:07;;;;;;;24.20;4.38;;;;;;;10.21;100.00;99956.38;5030788;28;20025;-74
2023/12/11 10:02:32;;;;;;;23.33;4.35;;;;;;;10.24;100.00;99966.88;5027241;28;20030;-74
2023/12/11 10:05:05;;;;;;;20.73;4.53;;;;;;;10.30;100.00;99962.91;5025753;28;20494;-74
2023/12/11 10:07:31;;;;;;;17.95;4.13;;;;;;;10.31;100.00;99956.25;5022748;28;20367;-74
2023/12/11 10:09:57;;;;;;;18.88;4.25;;;;;;;10.38;100.00;99966.94;5027863;28;20025;-74
2023/12/11 10:12:22;;;;;;;21.23;3.97;;;;;;;10.42;100.00;99970.72;5028349;28;20048;-74
2023/12/11 10:15:08;;;;;;;17.83;4.00;;;;;;;10.46;100.00;99964.28;5022577;28;20033;-74
2023/12/11 10:17:33;;;;;;;18.63;4.50;;;;;;;10.49;100.00;99977.53;5032351;28;20103;-74
2023/12/11 10:19:59;;;;;;;20.38;4.55;;;;;;;10.52;100.00;99979.69;5018647;28;20042;-74
2023/12/11 10:22:28;;;;;;;20.75;4.43;;;;;;;10.58;100.00;99976.81;5029324;28;20061;-74
2023/12/11 10:24:54;;;;;;;17.60;3.78;;;;;;;10.60;100.00;99977.34;5029971;28;20108;-74
2023/12/11 10:27:23;;;;;;;17.48;3.67;;;;;;;10.65;100.00;99983.63;5033497;28;20040;-74
2023/12/11 10:30:06;;;;;;;17.40;3.53;;;;;;;10.68;100.00;99988.56;5016060;28;20069;-74
2023/12/11 10:32:31;;;;;;;17.80;3.78;;;;;;;10.72;100.00;99997.09;5025425;28;20065;-74
2023/12/11 10:34:57;;;;;;;18.92;3.70;;;;;;;10.77;100.00;99993.41;5038547;28;20030;-74
2023/12/11 10:37:28;;;;;;;11.65;3.47;;;;;;;10.79;100.00;99989.19;5038913;28;20025;-74
2023/12/11 10:39:54;;;;;;;18.02;3.83;;;;;;;10.83;100.00;99990.22;5021219;28;20057;-74
2023/12/11 10:42:19;;;;;;;19.15;4.03;;;;;;;10.85;100.00;99996.28;5037246;28;20037;-74
2023/12/11 10:44:45;;;;;;;17.55;3.72;;;;;;;10.87;100.00;99996.81;5038204;28;20363;-74
2023/12/11 10:47:10;;;;;;;19.27;4.13;;;;;;;10.93;100.00;99998.34;5038727;28;20029;-74
2023/12/11 10:49:36;;;;;;;16.85;3.90;;;;;;;10.98;100.00;100000.22;5037457;28;20100;-74
2023/12/11 10:52:02;;;;;;;16.80;3.42;;;;;;;11.00;100.00;100006.25;5031549;28;20029;-74
2023/12/11 10:54:28;;;;;;;16.42;3.33;;;;;;;11.03;100.00;100005.66;5038601;28;20112;-74
2023/12/11 10:56:55;;;;;;;19.10;3.40;;;;;;;11.05;100.00;99997.81;5037326;28;20040;-74
2023/12/11 10:59:21;;;;;;;16.17;3.60;;;;;;;11.07;100.00;99994.75;5020503;28;20033;-74
2023/12/11 11:01:47;;;;;;;21.60;3.90;;;;;;;11.10;100.00;99983.81;5038522;28;20029;-74
2023/12/11 11:04:12;;;;;;;15.25;3.58;;;;;;;11.09;100.00;99986.94;5036988;28;20022;-74
2023/12/11 11:07:05;;;;;;;14.57;3.33;;;;;;;11.12;100.00;99992.69;5038389;28;20043;-74
2023/12/11 11:09:44;;;;;;;18.38;3.67;;;;;;;11.15;100.00;99999.56;5038279;28;20029;-74
2023/12/11 11:12:41;;;;;;;14.77;3.70;;;;;;;11.17;100.00;99989.78;5022915;28;20030;-74
2023/12/11 11:15:09;;;;;;;14.05;2.88;;;;;;;11.21;100.00;99973.31;5037180;28;20034;-74
2023/12/11 11:18:00;;;;;;;13.02;3.50;;;;;;;11.23;100.00;99971.06;5020621;28;20041;-74
2023/12/11 11:20:37;;;;;;;9.57;2.97;;;;;;;11.25;100.00;99962.38;5037134;28;20089;-74